Terminal Aerodrome Forecast
Issued by NWS Northern Indiana

Home | Current Version | Previous Version | Graphics & Text | Print | Product List | Glossary On
Versions: 1 2 3 4 5 6 7 8 9 10 11 12 13 14 15 16 17 18 19 20
000
FTUS43 KIWX 152200 AAA
TAFFWA
TAF AMD
KFWA 152231Z 1523/1618 15011KT P6SM SCT015 OVC080
      TEMPO 1523/1602 6SM -RA BR OVC015
     FM160200 13012KT 4SM -RA BR OVC012
     FM160700 16010KT 2SM -RA BR OVC008=

USA.gov is the U.S. government's official web portal to all federal, state and local government web resources and services.